Terrebonne, Québec

2:12 AM EST on December 25, 2014 (GMT -0500)
La Plaine | Change Station
CLOSE
Current Station
Personal Weather Station
Location: ( Terrebonne ), QUEBEC
Elevation: 210 ft
Nearby Weather Stations

Elev 210 ft 45.77 °N, 73.71 °W | Updated 1 minute ago

Overcast
Overcast
42.6 °F
Feels Like 43 °F
N
0.0
Wind Variable Wind from SSE
Gusts 4.7 mph

Today is forecast to be nearly the same temperature as yesterday.

Today
High -- | Low -- °F
--% Chance of Precip.
Yesterday
High -- | Low -- °F
Precip. -- in
7:34 AM 4:15 PM
Waxing Crescent, 14% visible
Pressure 29.27 in
Visibility 6.0 miles
Clouds Overcast 500 ft
Windchill 43 °F
Dew Point 43 °F
Humidity 100%
Rainfall 0.00 in
Snow Depth Not available.
UV 0 out of 12
Pollen Not available.
Air Quality Not available.
Flu Activity Not available.
METAR CYHU 250700Z AUTO 15012KT 6SM BR OVC005 06/05 A2926 RMK SLP910

More Conditions Fewer Conditions

Pressure 29.27 in
Visibility 6.0 miles
Clouds Overcast 500 ft
Windchill 43 °F
Dew Point 43 °F
Humidity 100%
Rainfall 0.00 in
Snow Depth Not available.
UV 0 out of 12
Pollen Not available.
Air Quality Not available.
Flu Activity Not available.
METAR CYHU 250700Z AUTO 15012KT 6SM BR OVC005 06/05 A2926 RMK SLP910

More Conditions Fewer Conditions

Nowcast |

Wind warning in effect

×

10-Day Weather Forecast

Almanac

Astronomy

Dec. 25, 2014 Rise Set
Actual Time
Civil Twilight
Nautical Twilight
Astronomical Twilight
Moon
Length of Visible Light
Length of Day
Tomorrow will be .
, % of the Moon is Illuminated

Today's Extremes

Country Highs Country Lows

Community

WunderPhotos

Upload Photos

1,780,250 photos uploaded!

WunderBlogs® & News

Nearby

Air Quality

  Air Quality AQ Index Pollutant
Not available.

Snow Depth

Station Depth Elevation

Earthquake Activity

City Distance Mag. Time & Date
Minimum magnitude displayed is 2.5.

Coastal Water Temperatures

Place Temperature

Nearby Weather Stations